RJOS(METAR)
10/20 06:12
RJOS 192112Z 32004KT 5000 -SHRA BR FEW004 BKN008 15/15 Q1014
RMK 2ST004 7ST008 A2996=
戻る
トップページへ戻る
IMOC Co,.Ltd.